sensor_id;sensor_type;location;lat;lon;timestamp;pressure;altitude;pressure_sealevel;temperature;humidity
75298;BME280;63896;45.990;18.688;2023-05-07T00:00:26;100673.41;;;13.15;82.35
75298;BME280;63896;45.990;18.688;2023-05-07T00:03:30;100663.78;;;13.14;82.39
75298;BME280;63896;45.990;18.688;2023-05-07T00:06:34;100671.03;;;13.07;82.41
75298;BME280;63896;45.990;18.688;2023-05-07T00:09:38;100666.00;;;12.99;82.82
75298;BME280;63896;45.990;18.688;2023-05-07T00:12:42;100670.38;;;12.93;82.99
75298;BME280;63896;45.990;18.688;2023-05-07T00:15:45;100674.88;;;12.93;83.34
75298;BME280;63896;45.990;18.688;2023-05-07T00:18:52;100674.28;;;12.90;83.41
75298;BME280;63896;45.990;18.688;2023-05-07T00:21:56;100683.31;;;12.89;83.83
75298;BME280;63896;45.990;18.688;2023-05-07T00:24:59;100685.00;;;12.84;84.13
75298;BME280;63896;45.990;18.688;2023-05-07T00:28:03;100675.25;;;12.78;84.46
75298;BME280;63896;45.990;18.688;2023-05-07T00:31:07;100678.94;;;12.77;84.74
75298;BME280;63896;45.990;18.688;2023-05-07T00:34:12;100687.75;;;12.77;85.14
75298;BME280;63896;45.990;18.688;2023-05-07T00:37:21;100681.63;;;12.77;85.45
75298;BME280;63896;45.990;18.688;2023-05-07T00:40:25;100683.28;;;12.71;85.20
75298;BME280;63896;45.990;18.688;2023-05-07T00:43:28;100690.25;;;12.72;85.74
75298;BME280;63896;45.990;18.688;2023-05-07T00:46:33;100691.72;;;12.68;85.85
75298;BME280;63896;45.990;18.688;2023-05-07T00:49:44;100685.06;;;12.59;87.16
75298;BME280;63896;45.990;18.688;2023-05-07T00:52:48;100691.06;;;12.55;87.92
75298;BME280;63896;45.990;18.688;2023-05-07T00:55:52;100697.41;;;12.54;89.64
75298;BME280;63896;45.990;18.688;2023-05-07T00:58:56;100692.28;;;12.52;91.80
75298;BME280;63896;45.990;18.688;2023-05-07T01:01:59;100676.41;;;12.46;93.03
75298;BME280;63896;45.990;18.688;2023-05-07T01:05:05;100688.13;;;12.38;93.52
75298;BME280;63896;45.990;18.688;2023-05-07T01:08:09;100694.66;;;12.42;94.50
75298;BME280;63896;45.990;18.688;2023-05-07T01:11:13;100689.41;;;12.35;94.92
75298;BME280;63896;45.990;18.688;2023-05-07T01:14:17;100695.94;;;12.33;95.41
75298;BME280;63896;45.990;18.688;2023-05-07T01:17:21;100702.91;;;12.34;96.01
75298;BME280;63896;45.990;18.688;2023-05-07T01:20:24;100693.91;;;12.35;96.00
75298;BME280;63896;45.990;18.688;2023-05-07T01:23:30;100701.75;;;12.48;96.42
75298;BME280;63896;45.990;18.688;2023-05-07T01:26:33;100709.16;;;12.46;95.53
75298;BME280;63896;45.990;18.688;2023-05-07T01:29:36;100713.00;;;12.50;96.01
75298;BME280;63896;45.990;18.688;2023-05-07T01:35:51;100705.28;;;12.42;97.31
75298;BME280;63896;45.990;18.688;2023-05-07T01:38:55;100701.63;;;12.36;97.75
75298;BME280;63896;45.990;18.688;2023-05-07T01:42:00;100698.66;;;12.26;97.95
75298;BME280;63896;45.990;18.688;2023-05-07T01:45:04;100701.00;;;12.16;98.43
75298;BME280;63896;45.990;18.688;2023-05-07T01:48:09;100694.31;;;12.07;99.38
75298;BME280;63896;45.990;18.688;2023-05-07T01:51:12;100699.00;;;12.12;100.00
75298;BME280;63896;45.990;18.688;2023-05-07T01:54:15;100694.09;;;12.33;99.53
75298;BME280;63896;45.990;18.688;2023-05-07T01:57:19;100692.84;;;12.36;99.18
75298;BME280;63896;45.990;18.688;2023-05-07T02:00:22;100696.38;;;12.30;99.42
75298;BME280;63896;45.990;18.688;2023-05-07T02:03:25;100691.88;;;12.30;100.00
75298;BME280;63896;45.990;18.688;2023-05-07T02:06:38;100685.00;;;12.23;100.00
75298;BME280;63896;45.990;18.688;2023-05-07T02:09:43;100689.69;;;12.21;100.00
75298;BME280;63896;45.990;18.688;2023-05-07T02:12:46;100690.19;;;12.11;100.00
75298;BME280;63896;45.990;18.688;2023-05-07T02:15:49;100699.25;;;12.04;100.00
75298;BME280;63896;45.990;18.688;2023-05-07T02:18:53;100681.94;;;11.94;100.00
75298;BME280;63896;45.990;18.688;2023-05-07T02:21:56;100687.19;;;12.01;100.00
75298;BME280;63896;45.990;18.688;2023-05-07T02:25:04;100677.59;;;12.00;100.00
75298;BME280;63896;45.990;18.688;2023-05-07T02:28:07;100684.94;;;12.05;100.00
75298;BME280;63896;45.990;18.688;2023-05-07T02:31:30;100681.88;;;12.01;100.00
75298;BME280;63896;45.990;18.688;2023-05-07T02:34:34;100682.38;;;11.91;100.00
75298;BME280;63896;45.990;18.688;2023-05-07T02:37:37;100679.16;;;11.83;100.00
75298;BME280;63896;45.990;18.688;2023-05-07T02:40:40;100680.03;;;11.77;100.00
75298;BME280;63896;45.990;18.688;2023-05-07T02:43:43;100673.69;;;11.71;100.00
75298;BME280;63896;45.990;18.688;2023-05-07T02:46:46;100677.59;;;11.69;100.00
75298;BME280;63896;45.990;18.688;2023-05-07T02:49:49;100680.81;;;11.71;100.00
75298;BME280;63896;45.990;18.688;2023-05-07T02:52:52;100682.28;;;11.67;100.00
75298;BME280;63896;45.990;18.688;2023-05-07T02:55:56;100681.94;;;11.57;100.00
75298;BME280;63896;45.990;18.688;2023-05-07T02:58:59;100683.59;;;11.51;100.00
75298;BME280;63896;45.990;18.688;2023-05-07T03:02:07;100685.72;;;11.42;100.00
75298;BME280;63896;45.990;18.688;2023-05-07T03:05:11;100700.84;;;11.42;100.00
75298;BME280;63896;45.990;18.688;2023-05-07T03:08:15;100698.81;;;11.37;100.00
75298;BME280;63896;45.990;18.688;2023-05-07T03:11:18;100697.78;;;11.32;100.00
75298;BME280;63896;45.990;18.688;2023-05-07T03:14:21;100702.53;;;11.30;100.00
75298;BME280;63896;45.990;18.688;2023-05-07T03:17:24;100698.41;;;11.34;100.00
75298;BME280;63896;45.990;18.688;2023-05-07T03:20:27;100701.28;;;11.32;100.00
75298;BME280;63896;45.990;18.688;2023-05-07T03:23:30;100709.25;;;11.32;100.00
75298;BME280;63896;45.990;18.688;2023-05-07T03:26:33;100705.75;;;11.38;100.00
75298;BME280;63896;45.990;18.688;2023-05-07T03:29:36;100708.41;;;11.38;100.00
75298;BME280;63896;45.990;18.688;2023-05-07T03:32:39;100701.47;;;11.37;100.00
75298;BME280;63896;45.990;18.688;2023-05-07T03:35:46;100703.44;;;11.48;100.00
75298;BME280;63896;45.990;18.688;2023-05-07T03:38:54;100698.06;;;11.62;100.00
75298;BME280;63896;45.990;18.688;2023-05-07T03:42:00;100707.50;;;11.58;100.00
75298;BME280;63896;45.990;18.688;2023-05-07T03:45:04;100709.09;;;11.59;100.00
75298;BME280;63896;45.990;18.688;2023-05-07T03:48:08;100714.56;;;11.70;100.00
75298;BME280;63896;45.990;18.688;2023-05-07T03:51:12;100711.34;;;12.00;100.00
75298;BME280;63896;45.990;18.688;2023-05-07T03:54:15;100707.56;;;12.14;100.00
75298;BME280;63896;45.990;18.688;2023-05-07T03:57:20;100711.16;;;12.26;100.00
75298;BME280;63896;45.990;18.688;2023-05-07T04:00:23;100714.56;;;12.33;100.00
75298;BME280;63896;45.990;18.688;2023-05-07T04:03:26;100718.34;;;12.43;99.89
75298;BME280;63896;45.990;18.688;2023-05-07T04:06:33;100727.50;;;12.54;99.40
75298;BME280;63896;45.990;18.688;2023-05-07T04:09:36;100731.72;;;12.62;99.14
75298;BME280;63896;45.990;18.688;2023-05-07T04:12:39;100740.69;;;12.67;98.17
75298;BME280;63896;45.990;18.688;2023-05-07T04:15:43;100735.88;;;12.76;97.03
75298;BME280;63896;45.990;18.688;2023-05-07T04:18:50;100739.38;;;12.76;96.56
75298;BME280;63896;45.990;18.688;2023-05-07T04:21:53;100734.34;;;12.86;96.08
75298;BME280;63896;45.990;18.688;2023-05-07T04:24:56;100733.41;;;12.99;94.92
75298;BME280;63896;45.990;18.688;2023-05-07T04:27:59;100736.78;;;13.13;93.76
75298;BME280;63896;45.990;18.688;2023-05-07T04:31:04;100744.59;;;13.26;93.82
75298;BME280;63896;45.990;18.688;2023-05-07T04:34:10;100742.16;;;13.43;91.91
75298;BME280;63896;45.990;18.688;2023-05-07T04:37:13;100753.75;;;13.66;90.63
75298;BME280;63896;45.990;18.688;2023-05-07T04:40:16;100747.34;;;13.86;89.51
75298;BME280;63896;45.990;18.688;2023-05-07T04:43:19;100760.84;;;14.14;89.06
75298;BME280;63896;45.990;18.688;2023-05-07T04:46:25;100766.13;;;14.20;87.33
75298;BME280;63896;45.990;18.688;2023-05-07T04:49:31;100761.84;;;14.31;86.78
75298;BME280;63896;45.990;18.688;2023-05-07T04:52:34;100764.44;;;14.49;85.51
75298;BME280;63896;45.990;18.688;2023-05-07T04:55:38;100769.25;;;14.70;84.56
75298;BME280;63896;45.990;18.688;2023-05-07T04:58:42;100771.09;;;14.82;82.17
75298;BME280;63896;45.990;18.688;2023-05-07T05:01:45;100774.47;;;14.77;81.68
75298;BME280;63896;45.990;18.688;2023-05-07T05:04:48;100770.41;;;15.09;79.89
75298;BME280;63896;45.990;18.688;2023-05-07T05:07:51;100772.72;;;15.17;80.33
75298;BME280;63896;45.990;18.688;2023-05-07T05:10:55;100761.75;;;15.31;78.34
75298;BME280;63896;45.990;18.688;2023-05-07T05:13:59;100768.38;;;15.28;79.13
75298;BME280;63896;45.990;18.688;2023-05-07T05:17:03;100769.28;;;15.34;79.53
75298;BME280;63896;45.990;18.688;2023-05-07T05:20:06;100778.06;;;15.17;79.46
75298;BME280;63896;45.990;18.688;2023-05-07T05:23:10;100779.88;;;15.40;79.82
75298;BME280;63896;45.990;18.688;2023-05-07T05:26:13;100767.13;;;15.70;77.98
75298;BME280;63896;45.990;18.688;2023-05-07T05:29:16;100772.44;;;15.82;76.92
75298;BME280;63896;45.990;18.688;2023-05-07T05:32:20;100778.34;;;15.84;76.88
75298;BME280;63896;45.990;18.688;2023-05-07T05:35:24;100773.34;;;15.88;75.88
75298;BME280;63896;45.990;18.688;2023-05-07T05:38:27;100779.69;;;15.70;75.51
75298;BME280;63896;45.990;18.688;2023-05-07T05:41:30;100783.22;;;16.15;74.10
75298;BME280;63896;45.990;18.688;2023-05-07T05:44:34;100788.00;;;16.13;74.12
75298;BME280;63896;45.990;18.688;2023-05-07T05:47:37;100793.38;;;16.30;74.91
75298;BME280;63896;45.990;18.688;2023-05-07T05:50:42;100794.28;;;16.36;74.07
75298;BME280;63896;45.990;18.688;2023-05-07T05:53:46;100792.22;;;16.71;75.12
75298;BME280;63896;45.990;18.688;2023-05-07T05:56:49;100794.09;;;16.87;74.75
75298;BME280;63896;45.990;18.688;2023-05-07T05:59:52;100794.94;;;16.93;74.20
75298;BME280;63896;45.990;18.688;2023-05-07T06:02:55;100792.28;;;17.31;72.74
75298;BME280;63896;45.990;18.688;2023-05-07T06:06:00;100790.34;;;17.48;71.17
75298;BME280;63896;45.990;18.688;2023-05-07T06:09:03;100788.06;;;17.79;68.82
75298;BME280;63896;45.990;18.688;2023-05-07T06:12:12;100795.88;;;17.58;69.21
75298;BME280;63896;45.990;18.688;2023-05-07T06:15:16;100788.13;;;17.62;68.92
75298;BME280;63896;45.990;18.688;2023-05-07T06:18:20;100797.16;;;18.26;66.87
75298;BME280;63896;45.990;18.688;2023-05-07T06:21:23;100794.63;;;18.46;65.33
75298;BME280;63896;45.990;18.688;2023-05-07T06:24:26;100792.63;;;18.95;63.72
75298;BME280;63896;45.990;18.688;2023-05-07T06:27:29;100794.19;;;20.11;59.58
75298;BME280;63896;45.990;18.688;2023-05-07T06:30:33;100794.25;;;20.46;58.06
75298;BME280;63896;45.990;18.688;2023-05-07T06:33:36;100793.44;;;20.61;58.34
75298;BME280;63896;45.990;18.688;2023-05-07T06:36:42;100791.50;;;21.02;57.26
75298;BME280;63896;45.990;18.688;2023-05-07T06:40:11;100792.25;;;21.37;56.95
75298;BME280;63896;45.990;18.688;2023-05-07T06:43:28;100790.19;;;21.73;53.69
75298;BME280;63896;45.990;18.688;2023-05-07T06:46:58;100782.78;;;21.99;53.03
75298;BME280;63896;45.990;18.688;2023-05-07T06:50:15;100782.22;;;22.02;52.66
75298;BME280;63896;45.990;18.688;2023-05-07T06:53:20;100777.84;;;22.06;50.59
75298;BME280;63896;45.990;18.688;2023-05-07T06:56:23;100778.41;;;22.42;49.69
75298;BME280;63896;45.990;18.688;2023-05-07T06:59:27;100785.69;;;22.08;49.61
75298;BME280;63896;45.990;18.688;2023-05-07T07:02:30;100775.06;;;21.72;49.70
75298;BME280;63896;45.990;18.688;2023-05-07T07:05:33;100781.22;;;21.93;49.42
75298;BME280;63896;45.990;18.688;2023-05-07T07:08:37;100781.56;;;22.20;49.99
75298;BME280;63896;45.990;18.688;2023-05-07T07:11:42;100784.53;;;22.87;47.86
75298;BME280;63896;45.990;18.688;2023-05-07T07:14:45;100788.22;;;22.33;49.32
75298;BME280;63896;45.990;18.688;2023-05-07T07:17:49;100779.69;;;22.16;49.80
75298;BME280;63896;45.990;18.688;2023-05-07T07:20:53;100785.94;;;22.79;48.55
75298;BME280;63896;45.990;18.688;2023-05-07T07:23:56;100780.91;;;22.33;49.56
75298;BME280;63896;45.990;18.688;2023-05-07T07:26:59;100781.50;;;22.93;48.73
75298;BME280;63896;45.990;18.688;2023-05-07T07:30:04;100785.94;;;22.79;50.46
75298;BME280;63896;45.990;18.688;2023-05-07T07:33:14;100782.19;;;23.04;47.99
75298;BME280;63896;45.990;18.688;2023-05-07T07:36:17;100777.34;;;23.01;46.96
75298;BME280;63896;45.990;18.688;2023-05-07T07:39:20;100773.78;;;22.82;46.83
75298;BME280;63896;45.990;18.688;2023-05-07T07:42:26;100773.78;;;22.82;46.46
75298;BME280;63896;45.990;18.688;2023-05-07T07:45:29;100777.78;;;22.84;47.26
75298;BME280;63896;45.990;18.688;2023-05-07T07:48:33;100776.75;;;22.46;47.61
75298;BME280;63896;45.990;18.688;2023-05-07T07:51:36;100779.66;;;22.21;49.49
75298;BME280;63896;45.990;18.688;2023-05-07T07:54:39;100795.09;;;22.20;49.15
75298;BME280;63896;45.990;18.688;2023-05-07T07:57:43;100794.53;;;22.52;47.93
75298;BME280;63896;45.990;18.688;2023-05-07T08:00:46;100781.88;;;22.48;47.07
75298;BME280;63896;45.990;18.688;2023-05-07T08:03:50;100790.50;;;22.55;46.91
75298;BME280;63896;45.990;18.688;2023-05-07T08:06:53;100787.44;;;22.61;45.21
75298;BME280;63896;45.990;18.688;2023-05-07T08:09:57;100790.91;;;22.67;44.94
75298;BME280;63896;45.990;18.688;2023-05-07T08:13:01;100796.00;;;23.02;45.38
75298;BME280;63896;45.990;18.688;2023-05-07T08:16:07;100800.72;;;22.58;45.55
75298;BME280;63896;45.990;18.688;2023-05-07T08:19:11;100797.19;;;23.20;44.54
75298;BME280;63896;45.990;18.688;2023-05-07T08:22:16;100797.25;;;22.86;46.54
75298;BME280;63896;45.990;18.688;2023-05-07T08:25:20;100793.44;;;23.16;46.21
75298;BME280;63896;45.990;18.688;2023-05-07T08:28:24;100789.38;;;27.16;37.91
75298;BME280;63896;45.990;18.688;2023-05-07T08:31:27;100790.41;;;28.36;34.31
75298;BME280;63896;45.990;18.688;2023-05-07T08:34:42;100779.38;;;30.05;30.96
75298;BME280;63896;45.990;18.688;2023-05-07T08:37:45;100781.66;;;28.77;32.18
75298;BME280;63896;45.990;18.688;2023-05-07T08:40:48;100775.38;;;30.56;29.90
75298;BME280;63896;45.990;18.688;2023-05-07T08:43:58;100773.81;;;30.67;29.47
75298;BME280;63896;45.990;18.688;2023-05-07T08:47:02;100789.53;;;29.55;30.70
75298;BME280;63896;45.990;18.688;2023-05-07T08:50:07;100786.66;;;29.51;31.13
75298;BME280;63896;45.990;18.688;2023-05-07T08:53:10;100782.28;;;28.83;32.64
75298;BME280;63896;45.990;18.688;2023-05-07T08:56:14;100784.53;;;30.07;30.81
75298;BME280;63896;45.990;18.688;2023-05-07T08:59:24;100788.28;;;27.65;33.93
75298;BME280;63896;45.990;18.688;2023-05-07T09:02:27;100783.28;;;26.57;36.20
75298;BME280;63896;45.990;18.688;2023-05-07T09:05:31;100787.13;;;26.56;37.02
75298;BME280;63896;45.990;18.688;2023-05-07T09:08:35;100797.63;;;28.24;34.43
75298;BME280;63896;45.990;18.688;2023-05-07T09:11:40;100796.41;;;28.94;34.00
75298;BME280;63896;45.990;18.688;2023-05-07T09:14:43;100802.94;;;28.37;34.61
75298;BME280;63896;45.990;18.688;2023-05-07T09:17:46;100800.63;;;29.29;33.13
75298;BME280;63896;45.990;18.688;2023-05-07T09:20:53;100790.59;;;31.99;28.98
75298;BME280;63896;45.990;18.688;2023-05-07T09:23:58;100795.94;;;30.09;32.44
75298;BME280;63896;45.990;18.688;2023-05-07T09:27:10;100808.75;;;29.46;34.60
75298;BME280;63896;45.990;18.688;2023-05-07T09:30:18;100810.88;;;28.94;34.36
75298;BME280;63896;45.990;18.688;2023-05-07T09:33:21;100811.56;;;27.97;38.31
75298;BME280;63896;45.990;18.688;2023-05-07T09:36:27;100805.88;;;27.59;37.44
75298;BME280;63896;45.990;18.688;2023-05-07T09:39:55;100812.72;;;28.13;37.35
75298;BME280;63896;45.990;18.688;2023-05-07T09:43:22;100795.91;;;27.06;40.06
75298;BME280;63896;45.990;18.688;2023-05-07T09:46:33;100802.88;;;26.90;40.00
75298;BME280;63896;45.990;18.688;2023-05-07T09:49:42;100789.72;;;26.61;40.43
75298;BME280;63896;45.990;18.688;2023-05-07T09:52:55;100796.94;;;24.57;44.25
75298;BME280;63896;45.990;18.688;2023-05-07T09:56:00;100789.09;;;24.56;45.55
75298;BME280;63896;45.990;18.688;2023-05-07T09:59:07;100787.56;;;24.50;45.65
75298;BME280;63896;45.990;18.688;2023-05-07T10:02:11;100785.22;;;24.76;45.16
75298;BME280;63896;45.990;18.688;2023-05-07T10:05:22;100781.25;;;25.41;44.13
75298;BME280;63896;45.990;18.688;2023-05-07T10:08:27;100784.31;;;25.40;43.87
75298;BME280;63896;45.990;18.688;2023-05-07T10:11:36;100786.97;;;24.85;45.82
75298;BME280;63896;45.990;18.688;2023-05-07T10:14:41;100778.28;;;24.70;46.05
75298;BME280;63896;45.990;18.688;2023-05-07T10:17:44;100778.56;;;25.28;45.37
75298;BME280;63896;45.990;18.688;2023-05-07T10:20:48;100782.00;;;27.73;40.34
75298;BME280;63896;45.990;18.688;2023-05-07T10:24:05;100771.44;;;30.90;33.51
75298;BME280;63896;45.990;18.688;2023-05-07T10:27:12;100775.50;;;32.33;30.96
75298;BME280;63896;45.990;18.688;2023-05-07T10:33:48;100758.66;;;33.10;30.32
75298;BME280;63896;45.990;18.688;2023-05-07T10:36:56;100758.50;;;33.88;29.03
75298;BME280;63896;45.990;18.688;2023-05-07T10:40:00;100752.13;;;33.49;28.90
75298;BME280;63896;45.990;18.688;2023-05-07T10:43:05;100747.44;;;34.45;27.92
75298;BME280;63896;45.990;18.688;2023-05-07T10:46:22;100743.78;;;33.80;28.55
75298;BME280;63896;45.990;18.688;2023-05-07T10:56:32;100744.81;;;33.57;28.60
75298;BME280;63896;45.990;18.688;2023-05-07T10:59:41;100736.03;;;32.69;30.12
75298;BME280;63896;45.990;18.688;2023-05-07T11:06:13;100734.84;;;32.39;30.19
75298;BME280;63896;45.990;18.688;2023-05-07T11:12:57;100737.09;;;31.53;31.40
75298;BME280;63896;45.990;18.688;2023-05-07T11:16:23;100747.06;;;30.19;32.49
75298;BME280;63896;45.990;18.688;2023-05-07T11:19:52;100736.22;;;31.01;29.90
75298;BME280;63896;45.990;18.688;2023-05-07T11:26:55;100737.50;;;31.67;29.08
75298;BME280;63896;45.990;18.688;2023-05-07T11:30:00;100739.03;;;31.29;30.95
75298;BME280;63896;45.990;18.688;2023-05-07T11:33:06;100741.06;;;32.51;28.85
75298;BME280;63896;45.990;18.688;2023-05-07T11:36:10;100741.03;;;31.68;30.26
75298;BME280;63896;45.990;18.688;2023-05-07T11:39:27;100745.09;;;31.22;32.15
75298;BME280;63896;45.990;18.688;2023-05-07T11:42:31;100741.19;;;32.27;29.22
75298;BME280;63896;45.990;18.688;2023-05-07T11:45:38;100739.66;;;34.28;26.99
75298;BME280;63896;45.990;18.688;2023-05-07T11:49:03;100741.25;;;33.21;28.87
75298;BME280;63896;45.990;18.688;2023-05-07T11:52:07;100742.94;;;33.10;28.42
75298;BME280;63896;45.990;18.688;2023-05-07T11:55:10;100741.63;;;33.20;27.98
75298;BME280;63896;45.990;18.688;2023-05-07T11:58:21;100730.94;;;34.07;26.62
75298;BME280;63896;45.990;18.688;2023-05-07T12:01:24;100734.44;;;33.50;27.15
75298;BME280;63896;45.990;18.688;2023-05-07T12:04:30;100741.53;;;33.00;27.87
75298;BME280;63896;45.990;18.688;2023-05-07T12:07:34;100741.66;;;32.45;28.59
75298;BME280;63896;45.990;18.688;2023-05-07T12:10:41;100736.84;;;33.01;28.38
75298;BME280;63896;45.990;18.688;2023-05-07T12:13:44;100731.22;;;32.50;29.28
75298;BME280;63896;45.990;18.688;2023-05-07T12:16:47;100737.69;;;30.20;31.99
75298;BME280;63896;45.990;18.688;2023-05-07T12:19:51;100732.31;;;32.06;28.93
75298;BME280;63896;45.990;18.688;2023-05-07T12:22:56;100727.47;;;31.47;29.96
75298;BME280;63896;45.990;18.688;2023-05-07T12:25:59;100730.44;;;29.42;32.56
75298;BME280;63896;45.990;18.688;2023-05-07T12:29:04;100727.56;;;29.59;32.35
75298;BME280;63896;45.990;18.688;2023-05-07T12:32:13;100723.28;;;31.90;28.32
75298;BME280;63896;45.990;18.688;2023-05-07T12:35:16;100722.78;;;32.28;27.88
75298;BME280;63896;45.990;18.688;2023-05-07T12:38:19;100720.41;;;32.57;26.89
75298;BME280;63896;45.990;18.688;2023-05-07T12:41:22;100720.78;;;32.13;27.95
75298;BME280;63896;45.990;18.688;2023-05-07T12:44:31;100717.03;;;32.48;26.99
75298;BME280;63896;45.990;18.688;2023-05-07T12:47:34;100717.16;;;32.08;27.44
75298;BME280;63896;45.990;18.688;2023-05-07T12:50:36;100704.78;;;32.30;27.80
75298;BME280;63896;45.990;18.688;2023-05-07T12:53:40;100705.34;;;33.14;26.54
75298;BME280;63896;45.990;18.688;2023-05-07T12:56:46;100698.41;;;33.04;25.81
75298;BME280;63896;45.990;18.688;2023-05-07T12:59:49;100695.16;;;30.80;29.07
75298;BME280;63896;45.990;18.688;2023-05-07T13:03:09;100689.16;;;30.42;30.19
75298;BME280;63896;45.990;18.688;2023-05-07T13:06:22;100682.41;;;33.10;26.22
75298;BME280;63896;45.990;18.688;2023-05-07T13:09:25;100679.28;;;33.62;27.10
75298;BME280;63896;45.990;18.688;2023-05-07T13:12:43;100681.06;;;31.82;28.65
75298;BME280;63896;45.990;18.688;2023-05-07T13:15:55;100671.53;;;31.12;30.22
75298;BME280;63896;45.990;18.688;2023-05-07T13:18:57;100674.94;;;30.72;31.44
75298;BME280;63896;45.990;18.688;2023-05-07T13:22:01;100665.78;;;30.44;31.91
75298;BME280;63896;45.990;18.688;2023-05-07T13:25:04;100669.78;;;30.02;32.84
75298;BME280;63896;45.990;18.688;2023-05-07T13:28:07;100674.38;;;30.43;31.86
75298;BME280;63896;45.990;18.688;2023-05-07T13:31:13;100678.19;;;29.76;34.18
75298;BME280;63896;45.990;18.688;2023-05-07T13:34:16;100684.34;;;29.94;36.17
75298;BME280;63896;45.990;18.688;2023-05-07T13:37:19;100687.69;;;30.44;35.26
75298;BME280;63896;45.990;18.688;2023-05-07T13:40:23;100685.66;;;29.67;37.53
75298;BME280;63896;45.990;18.688;2023-05-07T13:43:26;100677.94;;;29.48;38.87
75298;BME280;63896;45.990;18.688;2023-05-07T13:46:29;100681.91;;;28.63;38.80
75298;BME280;63896;45.990;18.688;2023-05-07T13:49:32;100673.28;;;29.49;38.48
75298;BME280;63896;45.990;18.688;2023-05-07T13:52:35;100676.22;;;29.14;37.87
75298;BME280;63896;45.990;18.688;2023-05-07T13:55:38;100680.91;;;28.29;37.51
75298;BME280;63896;45.990;18.688;2023-05-07T13:58:41;100681.75;;;28.68;36.38
75298;BME280;63896;45.990;18.688;2023-05-07T14:02:01;100677.06;;;28.30;36.86
75298;BME280;63896;45.990;18.688;2023-05-07T14:05:04;100679.38;;;27.68;37.80
75298;BME280;63896;45.990;18.688;2023-05-07T14:08:07;100675.50;;;27.69;37.58
75298;BME280;63896;45.990;18.688;2023-05-07T14:11:10;100677.91;;;27.54;38.02
75298;BME280;63896;45.990;18.688;2023-05-07T14:14:13;100668.22;;;27.30;38.85
75298;BME280;63896;45.990;18.688;2023-05-07T14:17:17;100675.13;;;27.36;38.90
75298;BME280;63896;45.990;18.688;2023-05-07T14:20:20;100671.13;;;27.25;39.17
75298;BME280;63896;45.990;18.688;2023-05-07T14:23:23;100668.16;;;26.96;40.68
75298;BME280;63896;45.990;18.688;2023-05-07T14:26:29;100677.16;;;27.05;40.13
75298;BME280;63896;45.990;18.688;2023-05-07T14:29:32;100677.09;;;26.88;41.93
75298;BME280;63896;45.990;18.688;2023-05-07T14:32:45;100684.00;;;26.85;42.69
75298;BME280;63896;45.990;18.688;2023-05-07T14:35:48;100683.69;;;26.95;43.32
75298;BME280;63896;45.990;18.688;2023-05-07T14:38:52;100689.13;;;26.87;45.51
75298;BME280;63896;45.990;18.688;2023-05-07T14:41:59;100677.97;;;27.06;45.75
75298;BME280;63896;45.990;18.688;2023-05-07T14:45:03;100675.91;;;27.20;45.77
75298;BME280;63896;45.990;18.688;2023-05-07T14:48:06;100679.53;;;26.89;46.49
75298;BME280;63896;45.990;18.688;2023-05-07T14:51:09;100679.34;;;26.02;47.15
75298;BME280;63896;45.990;18.688;2023-05-07T14:54:13;100682.94;;;25.53;48.58
75298;BME280;63896;45.990;18.688;2023-05-07T14:57:16;100686.97;;;25.42;47.49
75298;BME280;63896;45.990;18.688;2023-05-07T15:00:20;100689.28;;;25.62;47.87
75298;BME280;63896;45.990;18.688;2023-05-07T15:03:23;100682.44;;;25.51;47.05
75298;BME280;63896;45.990;18.688;2023-05-07T15:06:27;100678.25;;;25.31;46.79
75298;BME280;63896;45.990;18.688;2023-05-07T15:09:30;100679.38;;;25.17;46.96
75298;BME280;63896;45.990;18.688;2023-05-07T15:12:33;100679.06;;;25.18;48.00
75298;BME280;63896;45.990;18.688;2023-05-07T15:15:36;100676.16;;;25.28;46.19
75298;BME280;63896;45.990;18.688;2023-05-07T15:18:39;100670.44;;;25.02;47.93
75298;BME280;63896;45.990;18.688;2023-05-07T15:21:42;100675.75;;;25.21;45.79
75298;BME280;63896;45.990;18.688;2023-05-07T15:24:45;100678.06;;;25.28;47.36
75298;BME280;63896;45.990;18.688;2023-05-07T15:27:48;100678.28;;;25.18;46.36
75298;BME280;63896;45.990;18.688;2023-05-07T15:30:51;100676.06;;;25.20;46.39
75298;BME280;63896;45.990;18.688;2023-05-07T15:33:57;100669.72;;;25.10;47.32
75298;BME280;63896;45.990;18.688;2023-05-07T15:37:00;100667.94;;;24.92;46.51
75298;BME280;63896;45.990;18.688;2023-05-07T15:40:03;100653.03;;;25.17;48.58
75298;BME280;63896;45.990;18.688;2023-05-07T15:43:10;100648.19;;;25.28;46.30
75298;BME280;63896;45.990;18.688;2023-05-07T15:46:19;100648.19;;;25.28;46.92
75298;BME280;63896;45.990;18.688;2023-05-07T15:49:22;100658.84;;;25.24;46.83
75298;BME280;63896;45.990;18.688;2023-05-07T15:52:25;100656.34;;;25.14;47.66
75298;BME280;63896;45.990;18.688;2023-05-07T15:55:30;100657.38;;;25.04;47.77
75298;BME280;63896;45.990;18.688;2023-05-07T15:58:34;100656.88;;;24.75;49.71
75298;BME280;63896;45.990;18.688;2023-05-07T16:01:37;100648.78;;;24.43;50.57
75298;BME280;63896;45.990;18.688;2023-05-07T16:04:44;100662.72;;;24.23;52.07
75298;BME280;63896;45.990;18.688;2023-05-07T16:07:47;100658.34;;;24.08;52.04
75298;BME280;63896;45.990;18.688;2023-05-07T16:10:50;100660.03;;;23.29;54.11
75298;BME280;63896;45.990;18.688;2023-05-07T16:13:53;100652.38;;;23.36;54.48
75298;BME280;63896;45.990;18.688;2023-05-07T16:16:55;100653.97;;;23.37;54.29